Terminal Aerodrome Forecast
Issued by NWS Tuscon, AZ

Home | Current Version | Previous Version | Text Only | Print | Product List | Glossary On
Versions: 1 2 3 4 5 6 7 8 9 10 11 12 13
000
FTUS45 KTWC 290520
TAFDUG
TAF
KDUG 290520Z 2906/3006 35010KT P6SM SKC
     FM291000 VRB04KT P6SM FEW090
     FM291800 09009KT P6SM SCT090=

USA.gov is the U.S. government's official web portal to all federal, state and local government web resources and services.